sensor_id;sensor_type;location;lat;lon;timestamp;temperature;humidity
33811;DHT22;20119;48.334;16.206;2023-01-15T00:09:42;6.20;99.90
33811;DHT22;20119;48.334;16.206;2023-01-15T00:12:09;6.10;99.90
33811;DHT22;20119;48.334;16.206;2023-01-15T00:14:36;6.00;99.90
33811;DHT22;20119;48.334;16.206;2023-01-15T00:17:03;6.00;99.90
33811;DHT22;20119;48.334;16.206;2023-01-15T00:19:29;5.90;99.90
33811;DHT22;20119;48.334;16.206;2023-01-15T00:21:57;5.90;99.90
33811;DHT22;20119;48.334;16.206;2023-01-15T00:27:00;5.80;99.90
33811;DHT22;20119;48.334;16.206;2023-01-15T00:29:45;5.90;99.90
33811;DHT22;20119;48.334;16.206;2023-01-15T00:34:53;5.90;99.90
33811;DHT22;20119;48.334;16.206;2023-01-15T00:37:20;6.00;99.90
33811;DHT22;20119;48.334;16.206;2023-01-15T00:39:47;6.10;99.90
33811;DHT22;20119;48.334;16.206;2023-01-15T00:42:16;6.30;99.90
33811;DHT22;20119;48.334;16.206;2023-01-15T00:44:43;6.50;99.90
33811;DHT22;20119;48.334;16.206;2023-01-15T00:52:20;6.30;99.90
33811;DHT22;20119;48.334;16.206;2023-01-15T00:57:24;5.50;99.90
33811;DHT22;20119;48.334;16.206;2023-01-15T00:59:51;5.40;99.90
33811;DHT22;20119;48.334;16.206;2023-01-15T01:02:18;5.20;99.90
33811;DHT22;20119;48.334;16.206;2023-01-15T01:04:46;5.20;99.90
33811;DHT22;20119;48.334;16.206;2023-01-15T01:07:13;5.10;99.90
33811;DHT22;20119;48.334;16.206;2023-01-15T01:09:40;5.10;99.90
33811;DHT22;20119;48.334;16.206;2023-01-15T01:12:07;5.00;99.90
33811;DHT22;20119;48.334;16.206;2023-01-15T01:17:11;4.90;99.90
33811;DHT22;20119;48.334;16.206;2023-01-15T01:19:38;5.10;99.90
33811;DHT22;20119;48.334;16.206;2023-01-15T01:27:16;5.00;99.90
33811;DHT22;20119;48.334;16.206;2023-01-15T01:32:20;5.00;99.90
33811;DHT22;20119;48.334;16.206;2023-01-15T01:34:47;4.90;99.90
33811;DHT22;20119;48.334;16.206;2023-01-15T01:37:14;4.90;99.90
33811;DHT22;20119;48.334;16.206;2023-01-15T01:42:16;5.00;99.90
33811;DHT22;20119;48.334;16.206;2023-01-15T01:44:59;4.90;99.90
33811;DHT22;20119;48.334;16.206;2023-01-15T01:47:28;4.80;99.90
33811;DHT22;20119;48.334;16.206;2023-01-15T01:49:59;4.90;99.90
33811;DHT22;20119;48.334;16.206;2023-01-15T01:52:31;4.80;99.90
33811;DHT22;20119;48.334;16.206;2023-01-15T01:55:00;4.90;99.90
33811;DHT22;20119;48.334;16.206;2023-01-15T02:00:04;4.90;99.90
33811;DHT22;20119;48.334;16.206;2023-01-15T02:02:34;4.90;99.90
33811;DHT22;20119;48.334;16.206;2023-01-15T02:07:37;4.70;99.90
33811;DHT22;20119;48.334;16.206;2023-01-15T02:10:05;4.50;99.90
33811;DHT22;20119;48.334;16.206;2023-01-15T02:17:43;4.70;99.90
33811;DHT22;20119;48.334;16.206;2023-01-15T02:20:27;4.70;99.90
33811;DHT22;20119;48.334;16.206;2023-01-15T02:23:08;4.70;99.90
33811;DHT22;20119;48.334;16.206;2023-01-15T02:25:50;4.70;99.90
33811;DHT22;20119;48.334;16.206;2023-01-15T02:28:24;4.80;99.90
33811;DHT22;20119;48.334;16.206;2023-01-15T02:33:36;4.80;99.90
33811;DHT22;20119;48.334;16.206;2023-01-15T02:36:05;4.90;99.90
33811;DHT22;20119;48.334;16.206;2023-01-15T02:38:36;5.00;99.90
33811;DHT22;20119;48.334;16.206;2023-01-15T02:41:07;5.10;99.90
33811;DHT22;20119;48.334;16.206;2023-01-15T02:43:43;5.30;99.90
33811;DHT22;20119;48.334;16.206;2023-01-15T02:46:14;5.20;99.90
33811;DHT22;20119;48.334;16.206;2023-01-15T02:53:54;5.20;99.90
33811;DHT22;20119;48.334;16.206;2023-01-15T02:56:26;5.20;99.90
33811;DHT22;20119;48.334;16.206;2023-01-15T03:01:36;5.40;99.90
33811;DHT22;20119;48.334;16.206;2023-01-15T03:04:09;5.40;99.90
33811;DHT22;20119;48.334;16.206;2023-01-15T03:09:07;5.40;99.90
33811;DHT22;20119;48.334;16.206;2023-01-15T03:14:17;5.60;99.90
33811;DHT22;20119;48.334;16.206;2023-01-15T03:22:02;6.10;99.90
33811;DHT22;20119;48.334;16.206;2023-01-15T03:24:32;6.20;99.90
33811;DHT22;20119;48.334;16.206;2023-01-15T03:37:43;6.20;99.90
33811;DHT22;20119;48.334;16.206;2023-01-15T03:40:11;6.20;99.90
33811;DHT22;20119;48.334;16.206;2023-01-15T03:42:44;6.10;99.90
33811;DHT22;20119;48.334;16.206;2023-01-15T03:45:19;6.10;99.90
33811;DHT22;20119;48.334;16.206;2023-01-15T03:53:05;6.20;99.90
33811;DHT22;20119;48.334;16.206;2023-01-15T03:55:40;6.20;99.90
33811;DHT22;20119;48.334;16.206;2023-01-15T03:58:13;6.20;99.90
33811;DHT22;20119;48.334;16.206;2023-01-15T04:00:48;6.20;99.90
33811;DHT22;20119;48.334;16.206;2023-01-15T04:03:18;6.00;99.90
33811;DHT22;20119;48.334;16.206;2023-01-15T04:05:47;5.90;99.90
33811;DHT22;20119;48.334;16.206;2023-01-15T04:08:16;5.90;99.90
33811;DHT22;20119;48.334;16.206;2023-01-15T04:10:50;5.80;99.90
33811;DHT22;20119;48.334;16.206;2023-01-15T04:13:18;5.80;99.90
33811;DHT22;20119;48.334;16.206;2023-01-15T04:15:44;5.70;99.90
33811;DHT22;20119;48.334;16.206;2023-01-15T04:18:11;5.60;99.90
33811;DHT22;20119;48.334;16.206;2023-01-15T04:20:39;5.60;99.90
33811;DHT22;20119;48.334;16.206;2023-01-15T04:23:06;5.50;99.90
33811;DHT22;20119;48.334;16.206;2023-01-15T04:25:34;5.50;99.90
33811;DHT22;20119;48.334;16.206;2023-01-15T04:33:04;5.30;99.90
33811;DHT22;20119;48.334;16.206;2023-01-15T04:35:31;5.40;99.90
33811;DHT22;20119;48.334;16.206;2023-01-15T04:40:36;5.30;99.90
33811;DHT22;20119;48.334;16.206;2023-01-15T04:43:20;5.40;99.90
33811;DHT22;20119;48.334;16.206;2023-01-15T04:48:40;5.70;99.90
33811;DHT22;20119;48.334;16.206;2023-01-15T04:51:07;5.80;99.90
33811;DHT22;20119;48.334;16.206;2023-01-15T04:56:10;5.80;99.90
33811;DHT22;20119;48.334;16.206;2023-01-15T04:58:38;5.80;99.90
33811;DHT22;20119;48.334;16.206;2023-01-15T05:01:10;5.80;99.90
33811;DHT22;20119;48.334;16.206;2023-01-15T05:06:13;5.90;99.90
33811;DHT22;20119;48.334;16.206;2023-01-15T05:08:40;5.90;99.90
33811;DHT22;20119;48.334;16.206;2023-01-15T05:16:21;6.00;99.90
33811;DHT22;20119;48.334;16.206;2023-01-15T05:21:27;6.10;99.90
33811;DHT22;20119;48.334;16.206;2023-01-15T05:23:56;6.20;99.90
33811;DHT22;20119;48.334;16.206;2023-01-15T05:26:25;6.10;99.90
33811;DHT22;20119;48.334;16.206;2023-01-15T05:28:53;6.10;99.90
33811;DHT22;20119;48.334;16.206;2023-01-15T05:31:23;6.20;99.90
33811;DHT22;20119;48.334;16.206;2023-01-15T05:33:50;6.20;99.90
33811;DHT22;20119;48.334;16.206;2023-01-15T05:36:19;6.20;99.90
33811;DHT22;20119;48.334;16.206;2023-01-15T05:38:47;6.20;99.90
33811;DHT22;20119;48.334;16.206;2023-01-15T05:43:49;6.30;99.90
33811;DHT22;20119;48.334;16.206;2023-01-15T05:48:53;6.40;99.90
33811;DHT22;20119;48.334;16.206;2023-01-15T05:53:56;6.30;99.90
33811;DHT22;20119;48.334;16.206;2023-01-15T05:56:23;6.30;99.90
33811;DHT22;20119;48.334;16.206;2023-01-15T05:58:51;6.30;99.90
33811;DHT22;20119;48.334;16.206;2023-01-15T06:06:25;6.40;99.90
33811;DHT22;20119;48.334;16.206;2023-01-15T06:08:51;6.50;99.90
33811;DHT22;20119;48.334;16.206;2023-01-15T06:11:19;6.40;99.90
33811;DHT22;20119;48.334;16.206;2023-01-15T06:13:46;6.40;99.90
33811;DHT22;20119;48.334;16.206;2023-01-15T06:16:13;6.40;99.90
33811;DHT22;20119;48.334;16.206;2023-01-15T06:18:40;6.20;99.90
33811;DHT22;20119;48.334;16.206;2023-01-15T06:23:38;5.90;99.90
33811;DHT22;20119;48.334;16.206;2023-01-15T06:26:07;5.80;99.90
33811;DHT22;20119;48.334;16.206;2023-01-15T06:28:35;5.60;99.90
33811;DHT22;20119;48.334;16.206;2023-01-15T06:31:03;5.40;99.90
33811;DHT22;20119;48.334;16.206;2023-01-15T06:33:30;5.60;99.90
33811;DHT22;20119;48.334;16.206;2023-01-15T06:35:57;5.30;99.90
33811;DHT22;20119;48.334;16.206;2023-01-15T06:38:24;5.10;99.90
33811;DHT22;20119;48.334;16.206;2023-01-15T06:40:52;5.20;99.90
33811;DHT22;20119;48.334;16.206;2023-01-15T06:43:19;5.20;99.90
33811;DHT22;20119;48.334;16.206;2023-01-15T06:48:39;5.00;99.90
33811;DHT22;20119;48.334;16.206;2023-01-15T06:51:06;4.90;99.90
33811;DHT22;20119;48.334;16.206;2023-01-15T06:56:09;4.80;99.90
33811;DHT22;20119;48.334;16.206;2023-01-15T07:03:41;4.60;99.90
33811;DHT22;20119;48.334;16.206;2023-01-15T07:06:10;4.60;99.90
33811;DHT22;20119;48.334;16.206;2023-01-15T07:08:37;4.60;99.90
33811;DHT22;20119;48.334;16.206;2023-01-15T07:13:41;4.60;99.90
33811;DHT22;20119;48.334;16.206;2023-01-15T07:16:09;4.60;99.90
33811;DHT22;20119;48.334;16.206;2023-01-15T07:18:57;4.80;99.90
33811;DHT22;20119;48.334;16.206;2023-01-15T07:21:25;4.80;99.90
33811;DHT22;20119;48.334;16.206;2023-01-15T07:26:28;4.90;99.90
33811;DHT22;20119;48.334;16.206;2023-01-15T07:28:56;4.90;99.90
33811;DHT22;20119;48.334;16.206;2023-01-15T07:36:34;5.10;99.90
33811;DHT22;20119;48.334;16.206;2023-01-15T07:44:15;5.10;99.90
33811;DHT22;20119;48.334;16.206;2023-01-15T07:46:59;5.10;99.90
33811;DHT22;20119;48.334;16.206;2023-01-15T07:52:20;5.10;99.90
33811;DHT22;20119;48.334;16.206;2023-01-15T07:57:23;4.90;99.90
33811;DHT22;20119;48.334;16.206;2023-01-15T07:59:51;4.90;99.90
33811;DHT22;20119;48.334;16.206;2023-01-15T08:02:18;4.90;99.90
33811;DHT22;20119;48.334;16.206;2023-01-15T08:04:45;4.90;99.90
33811;DHT22;20119;48.334;16.206;2023-01-15T08:07:13;5.00;99.90
33811;DHT22;20119;48.334;16.206;2023-01-15T08:09:40;5.00;99.90
33811;DHT22;20119;48.334;16.206;2023-01-15T08:12:09;4.90;99.90
33811;DHT22;20119;48.334;16.206;2023-01-15T08:14:55;5.00;99.90
33811;DHT22;20119;48.334;16.206;2023-01-15T08:17:42;5.10;99.90
33811;DHT22;20119;48.334;16.206;2023-01-15T08:22:45;5.10;99.90
33811;DHT22;20119;48.334;16.206;2023-01-15T08:30:24;5.40;99.90
33811;DHT22;20119;48.334;16.206;2023-01-15T08:32:51;5.40;99.90
33811;DHT22;20119;48.334;16.206;2023-01-15T08:35:19;5.40;99.90
33811;DHT22;20119;48.334;16.206;2023-01-15T08:43:15;5.50;99.90
33811;DHT22;20119;48.334;16.206;2023-01-15T08:48:19;5.60;99.90
33811;DHT22;20119;48.334;16.206;2023-01-15T08:50:46;5.60;99.90
33811;DHT22;20119;48.334;16.206;2023-01-15T08:53:15;5.60;99.90
33811;DHT22;20119;48.334;16.206;2023-01-15T08:55:43;5.60;99.90
33811;DHT22;20119;48.334;16.206;2023-01-15T08:58:10;5.60;99.90
33811;DHT22;20119;48.334;16.206;2023-01-15T09:03:12;5.60;99.90
33811;DHT22;20119;48.334;16.206;2023-01-15T09:05:53;5.60;99.90
33811;DHT22;20119;48.334;16.206;2023-01-15T09:13:35;5.80;99.90
33811;DHT22;20119;48.334;16.206;2023-01-15T09:16:03;5.70;99.90
33811;DHT22;20119;48.334;16.206;2023-01-15T09:18:31;5.70;99.90
33811;DHT22;20119;48.334;16.206;2023-01-15T09:20:59;5.60;99.90
33811;DHT22;20119;48.334;16.206;2023-01-15T09:23:26;5.60;99.90
33811;DHT22;20119;48.334;16.206;2023-01-15T09:25:54;5.60;99.90
33811;DHT22;20119;48.334;16.206;2023-01-15T09:28:22;5.60;99.90
33811;DHT22;20119;48.334;16.206;2023-01-15T09:30:49;5.60;99.90
33811;DHT22;20119;48.334;16.206;2023-01-15T09:33:16;5.60;99.90
33811;DHT22;20119;48.334;16.206;2023-01-15T09:35:44;5.60;99.90
33811;DHT22;20119;48.334;16.206;2023-01-15T09:38:13;5.70;99.90
33811;DHT22;20119;48.334;16.206;2023-01-15T09:40:46;5.80;99.90
33811;DHT22;20119;48.334;16.206;2023-01-15T09:43:23;5.80;99.90
33811;DHT22;20119;48.334;16.206;2023-01-15T09:45:56;5.80;99.90
33811;DHT22;20119;48.334;16.206;2023-01-15T09:59:04;6.00;99.90
33811;DHT22;20119;48.334;16.206;2023-01-15T10:01:35;6.00;99.90
33811;DHT22;20119;48.334;16.206;2023-01-15T10:06:40;5.90;99.90
33811;DHT22;20119;48.334;16.206;2023-01-15T10:09:14;5.90;99.90
33811;DHT22;20119;48.334;16.206;2023-01-15T10:11:46;6.00;99.90
33811;DHT22;20119;48.334;16.206;2023-01-15T10:27:50;6.30;99.90
33811;DHT22;20119;48.334;16.206;2023-01-15T10:30:25;6.30;99.90
33811;DHT22;20119;48.334;16.206;2023-01-15T10:32:57;6.20;99.90
33811;DHT22;20119;48.334;16.206;2023-01-15T10:35:33;6.20;99.90
33811;DHT22;20119;48.334;16.206;2023-01-15T10:38:11;6.10;99.90
33811;DHT22;20119;48.334;16.206;2023-01-15T10:40:53;5.80;99.90
33811;DHT22;20119;48.334;16.206;2023-01-15T10:43:27;5.80;99.90
33811;DHT22;20119;48.334;16.206;2023-01-15T10:48:36;5.80;99.90
33811;DHT22;20119;48.334;16.206;2023-01-15T10:51:23;5.70;99.90
33811;DHT22;20119;48.334;16.206;2023-01-15T10:53:55;5.80;99.90
33811;DHT22;20119;48.334;16.206;2023-01-15T10:56:30;5.80;99.90
33811;DHT22;20119;48.334;16.206;2023-01-15T10:59:15;5.80;99.90
33811;DHT22;20119;48.334;16.206;2023-01-15T11:01:47;5.80;99.90
33811;DHT22;20119;48.334;16.206;2023-01-15T11:04:15;5.80;99.90
33811;DHT22;20119;48.334;16.206;2023-01-15T11:06:42;5.80;99.90
33811;DHT22;20119;48.334;16.206;2023-01-15T11:09:18;5.70;99.90
33811;DHT22;20119;48.334;16.206;2023-01-15T11:11:49;5.60;99.90
33811;DHT22;20119;48.334;16.206;2023-01-15T11:17:13;5.70;99.90
33811;DHT22;20119;48.334;16.206;2023-01-15T11:19:58;5.70;99.90
33811;DHT22;20119;48.334;16.206;2023-01-15T11:25:00;5.70;99.90
33811;DHT22;20119;48.334;16.206;2023-01-15T11:30:23;5.60;99.90
33811;DHT22;20119;48.334;16.206;2023-01-15T11:35:25;5.60;99.90
33811;DHT22;20119;48.334;16.206;2023-01-15T11:40:24;5.60;99.90
33811;DHT22;20119;48.334;16.206;2023-01-15T11:42:51;5.50;99.90
33811;DHT22;20119;48.334;16.206;2023-01-15T11:48:15;5.60;99.90
33811;DHT22;20119;48.334;16.206;2023-01-15T11:50:59;5.70;99.90
33811;DHT22;20119;48.334;16.206;2023-01-15T11:53:31;5.60;99.90
33811;DHT22;20119;48.334;16.206;2023-01-15T12:03:42;5.60;99.90
33811;DHT22;20119;48.334;16.206;2023-01-15T12:08:47;5.60;99.90
33811;DHT22;20119;48.334;16.206;2023-01-15T12:11:33;5.60;99.90
33811;DHT22;20119;48.334;16.206;2023-01-15T12:17:04;5.70;99.90
33811;DHT22;20119;48.334;16.206;2023-01-15T12:19:38;5.60;99.90
33811;DHT22;20119;48.334;16.206;2023-01-15T12:25:01;5.70;99.90
33811;DHT22;20119;48.334;16.206;2023-01-15T12:27:51;5.70;99.90
33811;DHT22;20119;48.334;16.206;2023-01-15T12:30:25;5.60;99.90
33811;DHT22;20119;48.334;16.206;2023-01-15T12:35:28;5.60;99.90
33811;DHT22;20119;48.334;16.206;2023-01-15T12:37:58;5.60;99.90
33811;DHT22;20119;48.334;16.206;2023-01-15T12:40:29;5.60;99.90
33811;DHT22;20119;48.334;16.206;2023-01-15T12:45:30;5.70;99.90
33811;DHT22;20119;48.334;16.206;2023-01-15T12:48:02;5.70;99.90
33811;DHT22;20119;48.334;16.206;2023-01-15T12:50:38;5.70;99.90
33811;DHT22;20119;48.334;16.206;2023-01-15T12:53:18;5.80;99.90
33811;DHT22;20119;48.334;16.206;2023-01-15T12:55:51;5.80;99.90
33811;DHT22;20119;48.334;16.206;2023-01-15T12:58:31;5.80;99.90
33811;DHT22;20119;48.334;16.206;2023-01-15T13:01:04;5.90;99.90
33811;DHT22;20119;48.334;16.206;2023-01-15T13:08:50;5.90;99.90
33811;DHT22;20119;48.334;16.206;2023-01-15T13:11:20;5.90;99.90
33811;DHT22;20119;48.334;16.206;2023-01-15T13:13:47;5.90;99.90
33811;DHT22;20119;48.334;16.206;2023-01-15T13:16:39;5.90;99.90
33811;DHT22;20119;48.334;16.206;2023-01-15T13:21:48;5.80;99.90
33811;DHT22;20119;48.334;16.206;2023-01-15T13:27:33;5.90;99.90
33811;DHT22;20119;48.334;16.206;2023-01-15T13:37:59;5.90;99.90
33811;DHT22;20119;48.334;16.206;2023-01-15T13:43:06;5.90;99.90
33811;DHT22;20119;48.334;16.206;2023-01-15T13:45:36;5.90;99.90
33811;DHT22;20119;48.334;16.206;2023-01-15T13:50:41;5.90;99.90
33811;DHT22;20119;48.334;16.206;2023-01-15T13:55:50;5.90;99.90
33811;DHT22;20119;48.334;16.206;2023-01-15T13:58:23;5.90;99.90
33811;DHT22;20119;48.334;16.206;2023-01-15T14:01:01;5.90;99.90
33811;DHT22;20119;48.334;16.206;2023-01-15T14:03:30;5.90;99.90
33811;DHT22;20119;48.334;16.206;2023-01-15T14:05:59;5.90;99.90
33811;DHT22;20119;48.334;16.206;2023-01-15T14:08:28;5.90;99.90
33811;DHT22;20119;48.334;16.206;2023-01-15T14:13:56;5.90;99.90
33811;DHT22;20119;48.334;16.206;2023-01-15T14:16:38;5.80;99.90
33811;DHT22;20119;48.334;16.206;2023-01-15T14:19:31;5.80;99.90
33811;DHT22;20119;48.334;16.206;2023-01-15T14:22:28;5.80;99.90
33811;DHT22;20119;48.334;16.206;2023-01-15T14:27:58;5.80;99.90
33811;DHT22;20119;48.334;16.206;2023-01-15T14:31:04;5.80;99.90
33811;DHT22;20119;48.334;16.206;2023-01-15T14:33:42;5.80;99.90
33811;DHT22;20119;48.334;16.206;2023-01-15T14:36:22;5.80;99.90
33811;DHT22;20119;48.334;16.206;2023-01-15T14:38:52;5.80;99.90
33811;DHT22;20119;48.334;16.206;2023-01-15T14:43:57;6.00;99.90
33811;DHT22;20119;48.334;16.206;2023-01-15T14:46:30;6.10;99.90
33811;DHT22;20119;48.334;16.206;2023-01-15T14:51:44;6.00;99.90
33811;DHT22;20119;48.334;16.206;2023-01-15T14:56:49;5.90;99.90
33811;DHT22;20119;48.334;16.206;2023-01-15T14:59:25;6.00;99.90
33811;DHT22;20119;48.334;16.206;2023-01-15T15:01:58;6.00;99.90
33811;DHT22;20119;48.334;16.206;2023-01-15T15:04:32;6.00;99.90
33811;DHT22;20119;48.334;16.206;2023-01-15T15:07:03;6.00;99.90
33811;DHT22;20119;48.334;16.206;2023-01-15T15:09:35;6.00;99.90
33811;DHT22;20119;48.334;16.206;2023-01-15T15:12:27;5.90;99.90
33811;DHT22;20119;48.334;16.206;2023-01-15T15:15:02;6.00;99.90
33811;DHT22;20119;48.334;16.206;2023-01-15T15:17:38;6.00;99.90
33811;DHT22;20119;48.334;16.206;2023-01-15T15:20:17;6.00;99.90
33811;DHT22;20119;48.334;16.206;2023-01-15T15:22:45;5.90;99.90
33811;DHT22;20119;48.334;16.206;2023-01-15T15:25:18;6.00;99.90
33811;DHT22;20119;48.334;16.206;2023-01-15T15:27:46;5.90;99.90
33811;DHT22;20119;48.334;16.206;2023-01-15T15:30:14;6.00;99.90
33811;DHT22;20119;48.334;16.206;2023-01-15T15:35:24;5.80;99.90
33811;DHT22;20119;48.334;16.206;2023-01-15T15:37:52;5.80;99.90
33811;DHT22;20119;48.334;16.206;2023-01-15T15:43:02;6.00;99.90
33811;DHT22;20119;48.334;16.206;2023-01-15T15:45:52;6.10;99.90
33811;DHT22;20119;48.334;16.206;2023-01-15T15:48:37;6.20;99.90
33811;DHT22;20119;48.334;16.206;2023-01-15T15:51:30;6.30;99.90
33811;DHT22;20119;48.334;16.206;2023-01-15T15:54:05;6.40;99.90
33811;DHT22;20119;48.334;16.206;2023-01-15T15:56:37;6.40;99.90
33811;DHT22;20119;48.334;16.206;2023-01-15T15:59:05;6.50;99.90
33811;DHT22;20119;48.334;16.206;2023-01-15T16:01:36;6.50;99.90
33811;DHT22;20119;48.334;16.206;2023-01-15T16:04:04;6.60;99.90
33811;DHT22;20119;48.334;16.206;2023-01-15T16:06:32;6.60;99.90
33811;DHT22;20119;48.334;16.206;2023-01-15T16:09:01;6.70;99.90
33811;DHT22;20119;48.334;16.206;2023-01-15T16:11:29;6.70;99.90
33811;DHT22;20119;48.334;16.206;2023-01-15T16:14:00;6.70;99.90
33811;DHT22;20119;48.334;16.206;2023-01-15T16:16:29;6.80;99.90
33811;DHT22;20119;48.334;16.206;2023-01-15T16:18:58;6.80;99.90
33811;DHT22;20119;48.334;16.206;2023-01-15T16:24:03;6.80;99.90
33811;DHT22;20119;48.334;16.206;2023-01-15T16:31:42;6.70;99.90
33811;DHT22;20119;48.334;16.206;2023-01-15T16:34:16;6.70;99.90
33811;DHT22;20119;48.334;16.206;2023-01-15T16:36:44;6.60;99.90
33811;DHT22;20119;48.334;16.206;2023-01-15T16:41:48;6.40;99.90
33811;DHT22;20119;48.334;16.206;2023-01-15T16:46:53;6.40;99.90
33811;DHT22;20119;48.334;16.206;2023-01-15T16:49:25;6.40;99.90
33811;DHT22;20119;48.334;16.206;2023-01-15T16:51:53;6.50;99.90
33811;DHT22;20119;48.334;16.206;2023-01-15T17:02:32;6.60;99.90
33811;DHT22;20119;48.334;16.206;2023-01-15T17:07:35;6.60;99.90
33811;DHT22;20119;48.334;16.206;2023-01-15T17:10:04;6.60;99.90
33811;DHT22;20119;48.334;16.206;2023-01-15T17:12:33;6.70;99.90
33811;DHT22;20119;48.334;16.206;2023-01-15T17:15:27;6.70;99.90
33811;DHT22;20119;48.334;16.206;2023-01-15T17:25:41;6.60;99.90
33811;DHT22;20119;48.334;16.206;2023-01-15T17:28:21;6.50;99.90
33811;DHT22;20119;48.334;16.206;2023-01-15T17:30:52;6.50;99.90
33811;DHT22;20119;48.334;16.206;2023-01-15T17:33:19;6.60;99.90
33811;DHT22;20119;48.334;16.206;2023-01-15T17:38:22;6.60;99.90
33811;DHT22;20119;48.334;16.206;2023-01-15T17:40:50;6.60;99.90
33811;DHT22;20119;48.334;16.206;2023-01-15T17:43:20;6.50;99.90
33811;DHT22;20119;48.334;16.206;2023-01-15T17:48:22;6.50;99.90
33811;DHT22;20119;48.334;16.206;2023-01-15T17:50:49;6.50;99.90
33811;DHT22;20119;48.334;16.206;2023-01-15T17:53:16;6.50;99.90
33811;DHT22;20119;48.334;16.206;2023-01-15T17:55:43;6.50;99.90
33811;DHT22;20119;48.334;16.206;2023-01-15T17:58:29;6.50;99.90
33811;DHT22;20119;48.334;16.206;2023-01-15T18:01:16;6.40;99.90
33811;DHT22;20119;48.334;16.206;2023-01-15T18:04:02;6.40;99.90
33811;DHT22;20119;48.334;16.206;2023-01-15T18:11:56;6.40;99.90
33811;DHT22;20119;48.334;16.206;2023-01-15T18:14:24;6.40;99.90
33811;DHT22;20119;48.334;16.206;2023-01-15T18:16:51;6.40;99.90
33811;DHT22;20119;48.334;16.206;2023-01-15T18:19:19;6.30;99.90
33811;DHT22;20119;48.334;16.206;2023-01-15T18:21:46;6.30;99.90
33811;DHT22;20119;48.334;16.206;2023-01-15T18:24:12;6.40;99.90
33811;DHT22;20119;48.334;16.206;2023-01-15T18:37:16;6.40;99.90
33811;DHT22;20119;48.334;16.206;2023-01-15T18:39:43;6.30;99.90
33811;DHT22;20119;48.334;16.206;2023-01-15T18:42:10;6.30;99.90
33811;DHT22;20119;48.334;16.206;2023-01-15T18:44:54;6.30;99.90
33811;DHT22;20119;48.334;16.206;2023-01-15T18:47:38;6.20;99.90
33811;DHT22;20119;48.334;16.206;2023-01-15T18:50:07;6.20;99.90
33811;DHT22;20119;48.334;16.206;2023-01-15T18:52:36;6.20;99.90
33811;DHT22;20119;48.334;16.206;2023-01-15T18:57:51;6.10;99.90
33811;DHT22;20119;48.334;16.206;2023-01-15T19:02:53;6.10;99.90
33811;DHT22;20119;48.334;16.206;2023-01-15T19:07:56;6.10;99.90
33811;DHT22;20119;48.334;16.206;2023-01-15T19:10:23;6.10;99.90
33811;DHT22;20119;48.334;16.206;2023-01-15T19:12:50;6.10;99.90
33811;DHT22;20119;48.334;16.206;2023-01-15T19:15:18;6.10;99.90
33811;DHT22;20119;48.334;16.206;2023-01-15T19:18:03;6.00;99.90
33811;DHT22;20119;48.334;16.206;2023-01-15T19:20:48;6.00;99.90
33811;DHT22;20119;48.334;16.206;2023-01-15T19:23:16;6.00;99.90
33811;DHT22;20119;48.334;16.206;2023-01-15T19:25:46;6.00;99.90
33811;DHT22;20119;48.334;16.206;2023-01-15T19:28:16;6.00;99.90
33811;DHT22;20119;48.334;16.206;2023-01-15T19:30:44;5.90;99.90
33811;DHT22;20119;48.334;16.206;2023-01-15T19:33:32;5.90;99.90
33811;DHT22;20119;48.334;16.206;2023-01-15T19:35:59;5.90;99.90
33811;DHT22;20119;48.334;16.206;2023-01-15T19:41:07;5.90;99.90
33811;DHT22;20119;48.334;16.206;2023-01-15T19:46:27;5.80;99.90
33811;DHT22;20119;48.334;16.206;2023-01-15T19:49:14;5.80;99.90
33811;DHT22;20119;48.334;16.206;2023-01-15T19:52:00;5.80;99.90
33811;DHT22;20119;48.334;16.206;2023-01-15T19:54:43;5.80;99.90
33811;DHT22;20119;48.334;16.206;2023-01-15T20:00:01;5.70;99.90
33811;DHT22;20119;48.334;16.206;2023-01-15T20:02:28;5.70;99.90
33811;DHT22;20119;48.334;16.206;2023-01-15T20:12:33;5.70;99.90
33811;DHT22;20119;48.334;16.206;2023-01-15T20:15:19;5.70;99.90
33811;DHT22;20119;48.334;16.206;2023-01-15T20:17:46;5.70;99.90
33811;DHT22;20119;48.334;16.206;2023-01-15T20:20:13;5.70;99.90
33811;DHT22;20119;48.334;16.206;2023-01-15T20:30:23;5.60;99.90
33811;DHT22;20119;48.334;16.206;2023-01-15T20:35:27;5.60;99.90
33811;DHT22;20119;48.334;16.206;2023-01-15T20:37:55;5.60;99.90
33811;DHT22;20119;48.334;16.206;2023-01-15T20:42:58;5.60;99.90
33811;DHT22;20119;48.334;16.206;2023-01-15T20:45:44;5.60;99.90
33811;DHT22;20119;48.334;16.206;2023-01-15T20:55:57;5.50;99.90
33811;DHT22;20119;48.334;16.206;2023-01-15T20:58:24;5.40;99.90
33811;DHT22;20119;48.334;16.206;2023-01-15T21:00:53;5.50;99.90
33811;DHT22;20119;48.334;16.206;2023-01-15T21:08:37;5.40;99.90
33811;DHT22;20119;48.334;16.206;2023-01-15T21:16:17;5.40;99.90
33811;DHT22;20119;48.334;16.206;2023-01-15T21:21:19;5.30;99.90
33811;DHT22;20119;48.334;16.206;2023-01-15T21:26:22;5.30;99.90
33811;DHT22;20119;48.334;16.206;2023-01-15T21:31:26;5.30;99.90
33811;DHT22;20119;48.334;16.206;2023-01-15T21:33:54;5.30;99.90
33811;DHT22;20119;48.334;16.206;2023-01-15T21:36:21;5.30;99.90
33811;DHT22;20119;48.334;16.206;2023-01-15T21:38:49;5.30;99.90
33811;DHT22;20119;48.334;16.206;2023-01-15T21:43:51;5.30;99.90
33811;DHT22;20119;48.334;16.206;2023-01-15T21:51:47;5.30;99.90
33811;DHT22;20119;48.334;16.206;2023-01-15T21:54:14;5.30;99.90
33811;DHT22;20119;48.334;16.206;2023-01-15T22:01:46;5.20;99.90
33811;DHT22;20119;48.334;16.206;2023-01-15T22:04:13;5.20;99.90
33811;DHT22;20119;48.334;16.206;2023-01-15T22:06:42;5.20;99.90
33811;DHT22;20119;48.334;16.206;2023-01-15T22:09:10;5.20;99.90
33811;DHT22;20119;48.334;16.206;2023-01-15T22:14:14;5.20;99.90
33811;DHT22;20119;48.334;16.206;2023-01-15T22:16:41;5.20;99.90
33811;DHT22;20119;48.334;16.206;2023-01-15T22:21:47;5.20;99.90
33811;DHT22;20119;48.334;16.206;2023-01-15T22:32:02;5.00;99.90
33811;DHT22;20119;48.334;16.206;2023-01-15T22:34:29;5.00;99.90
33811;DHT22;20119;48.334;16.206;2023-01-15T22:36:56;5.00;99.90
33811;DHT22;20119;48.334;16.206;2023-01-15T22:39:24;5.00;99.90
33811;DHT22;20119;48.334;16.206;2023-01-15T22:41:52;4.90;99.90
33811;DHT22;20119;48.334;16.206;2023-01-15T22:55:00;4.90;99.90
33811;DHT22;20119;48.334;16.206;2023-01-15T22:57:27;4.80;99.90
33811;DHT22;20119;48.334;16.206;2023-01-15T22:59:55;4.80;99.90
33811;DHT22;20119;48.334;16.206;2023-01-15T23:02:22;4.80;99.90
33811;DHT22;20119;48.334;16.206;2023-01-15T23:05:04;4.80;99.90
33811;DHT22;20119;48.334;16.206;2023-01-15T23:07:32;4.70;99.90
33811;DHT22;20119;48.334;16.206;2023-01-15T23:10:01;4.70;99.90
33811;DHT22;20119;48.334;16.206;2023-01-15T23:12:29;4.70;99.90
33811;DHT22;20119;48.334;16.206;2023-01-15T23:17:31;4.70;99.90